Time;durP1;ratioP1;P1;durP2;ratioP2;P2;SDS_P1;SDS_P2;PMS_P1;PMS_P2;Temp;Humidity;BMP_temperature;BMP_pressure;BME280_temperature;BME280_humidity;BME280_pressure;Samples;Min_cycle;Max_cycle;Signal;HPM_P1;HPM_P2
2022/08/19 00:02:02;;;;;;;11.50;6.63;;;;;;;17.07;94.55;101481.34;5067638;28;20383;-78
2022/08/19 00:04:31;;;;;;;12.30;6.50;;;;;;;17.01;94.42;101475.84;5069320;28;20134;-78
2022/08/19 00:06:57;;;;;;;10.80;6.85;;;;;;;17.02;94.39;101494.16;5087844;28;20083;-78
2022/08/19 00:09:24;;;;;;;9.97;6.10;;;;;;;16.99;95.47;101489.06;5088052;28;20463;-78
2022/08/19 00:11:50;;;;;;;11.18;6.63;;;;;;;16.97;94.87;101494.00;5069297;28;20114;-78
2022/08/19 00:14:17;;;;;;;9.00;6.82;;;;;;;16.97;94.65;101497.59;5088352;28;20043;-78
2022/08/19 00:16:45;;;;;;;12.60;7.10;;;;;;;16.99;94.34;101505.66;5088094;28;20012;-78
2022/08/19 00:19:11;;;;;;;9.60;7.15;;;;;;;16.97;94.62;101494.81;5088373;28;20036;-78
2022/08/19 00:21:39;;;;;;;12.13;6.90;;;;;;;16.93;95.15;101489.97;5066982;28;20031;-77
2022/08/19 00:24:09;;;;;;;10.82;6.72;;;;;;;16.95;95.15;101501.66;5038111;28;20573;-77
2022/08/19 00:26:36;;;;;;;15.57;7.15;;;;;;;16.97;95.51;101488.44;5083619;28;20036;-78
2022/08/19 00:29:03;;;;;;;;;;;;;;;16.93;95.51;101490.81;5071496;28;20036;-78
2022/08/19 00:31:28;;;;;;;12.88;7.70;;;;;;;16.90;94.90;101485.72;5069795;28;19969;-79
2022/08/19 00:33:55;;;;;;;13.67;7.47;;;;;;;16.86;94.90;101478.91;5070476;28;20032;-78
2022/08/19 00:36:20;;;;;;;11.00;6.68;;;;;;;16.81;93.86;101466.84;5088085;28;20370;-79
2022/08/19 00:38:46;;;;;;;12.83;7.73;;;;;;;16.77;94.36;101460.03;5070593;28;20081;-79
2022/08/19 00:41:20;;;;;;;8.47;6.83;;;;;;;16.75;94.37;101471.34;5070859;28;20111;-79
2022/08/19 00:44:08;;;;;;;10.20;6.47;;;;;;;16.74;94.89;101469.63;5069851;28;20035;-79
2022/08/19 00:46:36;;;;;;;11.57;8.00;;;;;;;16.70;94.72;101478.63;5066794;28;20041;-78
2022/08/19 00:49:09;;;;;;;12.30;8.70;;;;;;;16.68;95.53;101484.38;5085308;28;20112;-78
2022/08/19 00:51:35;;;;;;;16.05;8.88;;;;;;;16.64;94.75;101485.03;5087626;28;20024;-78
2022/08/19 00:54:01;;;;;;;12.93;8.15;;;;;;;16.61;95.90;101479.94;5088013;28;20029;-77
2022/08/19 00:56:27;;;;;;;8.55;7.15;;;;;;;16.59;95.18;101485.69;5068856;28;20387;-79
2022/08/19 00:58:58;;;;;;;13.10;7.80;;;;;;;16.60;95.65;101484.59;5088049;28;20047;-78
2022/08/19 01:01:23;;;;;;;10.25;7.97;;;;;;;16.58;94.99;101481.22;5068061;28;20029;-79
2022/08/19 01:03:50;;;;;;;17.10;8.10;;;;;;;16.56;96.16;101485.28;5060667;28;20036;-78
2022/08/19 01:06:16;;;;;;;8.20;7.32;;;;;;;16.55;95.60;101489.94;5085796;28;20036;-78
2022/08/19 01:08:41;;;;;;;14.98;8.30;;;;;;;16.50;94.50;101495.28;5085721;28;20426;-78
2022/08/19 01:11:07;;;;;;;10.23;7.93;;;;;;;16.48;94.85;101491.09;5091342;28;20123;-78
2022/08/19 01:13:33;;;;;;;15.50;7.67;;;;;;;16.54;95.27;101488.25;5091554;28;20126;-78
2022/08/19 01:16:10;;;;;;;16.00;9.00;;;;;;;16.54;95.53;101490.19;5092241;28;20028;-78
2022/08/19 01:18:40;;;;;;;15.18;9.02;;;;;;;16.49;94.57;101488.06;5071314;28;20020;-78
2022/08/19 01:21:15;;;;;;;12.95;7.95;;;;;;;16.48;95.26;101477.25;5092364;28;20042;-77
2022/08/19 01:23:44;;;;;;;26.17;10.05;;;;;;;16.55;95.48;101481.66;5091317;28;20028;-76
2022/08/19 01:26:14;;;;;;;15.93;10.25;;;;;;;16.56;94.92;101488.03;5091339;28;20058;-77
2022/08/19 01:28:40;;;;;;;18.15;11.45;;;;;;;16.68;94.80;101491.81;5090750;28;20062;-77
2022/08/19 01:31:07;;;;;;;;;;;;;;;16.69;94.97;101485.19;5092715;28;20494;-78
2022/08/19 01:33:32;;;;;;;18.27;11.68;;;;;;;16.65;95.20;101495.03;5091395;28;19916;-78
2022/08/19 01:36:07;;;;;;;18.93;13.27;;;;;;;16.65;95.26;101495.88;5068075;28;20033;-77
2022/08/19 01:38:38;;;;;;;21.23;14.82;;;;;;;16.63;94.97;101494.38;5065030;28;20036;-77
2022/08/19 01:41:04;;;;;;;21.40;14.63;;;;;;;16.67;94.63;101490.97;5071094;28;20043;-78
2022/08/19 01:43:29;;;;;;;21.48;14.82;;;;;;;16.63;94.75;101492.47;5071370;28;20090;-78
2022/08/19 01:45:55;;;;;;;25.50;14.37;;;;;;;16.60;94.64;101495.66;5091105;28;20032;-77
2022/08/19 01:48:20;;;;;;;25.30;16.07;;;;;;;16.59;94.86;101490.38;5072305;28;20446;-78
2022/08/19 01:50:47;;;;;;;24.47;15.50;;;;;;;16.55;94.69;101494.66;5071851;28;20043;-76
2022/08/19 01:53:13;;;;;;;23.48;15.48;;;;;;;16.53;95.24;101492.09;5089342;28;20020;-78
2022/08/19 01:55:41;;;;;;;21.83;16.10;;;;;;;16.46;94.97;101494.06;5060990;28;20542;-80
2022/08/19 01:58:16;;;;;;;20.98;17.20;;;;;;;16.45;95.49;101502.56;5089320;28;20040;-76
2022/08/19 02:00:42;;;;;;;20.45;15.88;;;;;;;16.39;95.05;101503.44;5089898;28;20039;-78
2022/08/19 02:03:09;;;;;;;24.27;16.13;;;;;;;16.38;95.25;101498.97;5071694;28;20380;-78
2022/08/19 02:05:34;;;;;;;22.05;15.63;;;;;;;16.38;94.64;101493.44;5069046;28;20029;-78
2022/08/19 02:07:59;;;;;;;20.43;15.57;;;;;;;16.36;95.17;101492.78;5089663;28;20035;-77
2022/08/19 02:10:25;;;;;;;23.87;15.43;;;;;;;16.31;95.59;101495.34;5086861;28;20039;-78
2022/08/19 02:12:50;;;;;;;22.83;16.87;;;;;;;16.27;95.54;101497.72;5069895;28;20054;-78
2022/08/19 02:15:19;;;;;;;22.50;15.60;;;;;;;16.33;95.53;101485.78;5073118;28;20165;-78
2022/08/19 02:17:46;;;;;;;24.58;16.88;;;;;;;16.37;96.60;101492.56;5089186;28;20036;-76
2022/08/19 02:20:13;;;;;;;26.85;15.98;;;;;;;16.35;94.85;101493.84;5090988;28;20078;-78
2022/08/19 02:22:42;;;;;;;21.00;16.67;;;;;;;16.36;95.27;101492.78;5088562;28;20375;-78
2022/08/19 02:25:09;;;;;;;29.48;17.73;;;;;;;16.37;95.84;101484.28;5072024;28;20568;-77
2022/08/19 02:27:34;;;;;;;28.05;17.33;;;;;;;16.41;95.74;101480.03;5089198;28;20032;-77
2022/08/19 02:30:00;;;;;;;28.17;18.87;;;;;;;16.37;95.51;101483.41;5091672;28;20043;-77
2022/08/19 02:32:26;;;;;;;24.83;18.77;;;;;;;16.39;96.38;101476.63;5089125;28;20217;-78
2022/08/19 02:34:51;;;;;;;29.37;19.83;;;;;;;16.34;96.26;101483.88;5088094;28;20115;-77
2022/08/19 02:40:01;;;;;;;29.25;19.35;;;;;;;16.42;96.75;101481.72;5088552;28;20413;-76
2022/08/19 02:42:26;;;;;;;30.77;18.38;;;;;;;16.36;96.24;101476.19;5088834;28;20047;-77
2022/08/19 02:44:51;;;;;;;30.47;18.70;;;;;;;16.37;95.97;101483.41;5053640;28;20404;-78
2022/08/19 02:47:18;;;;;;;29.67;17.97;;;;;;;16.32;96.35;101481.31;5068432;28;20024;-77
2022/08/19 02:49:44;;;;;;;27.48;18.30;;;;;;;16.31;96.35;101473.22;5090347;28;20444;-78
2022/08/19 02:52:10;;;;;;;28.17;18.17;;;;;;;16.31;96.89;101484.28;5087978;28;20052;-77
2022/08/19 02:54:36;;;;;;;25.30;18.35;;;;;;;16.26;96.76;101479.44;5071608;28;20050;-77
2022/08/19 02:57:02;;;;;;;31.05;19.70;;;;;;;16.24;96.96;101481.56;5089332;28;20028;-77
2022/08/19 02:59:30;;;;;;;29.15;19.42;;;;;;;16.25;97.05;101471.34;5070961;28;20071;-77
2022/08/19 03:01:55;;;;;;;30.50;18.42;;;;;;;16.27;96.82;101477.53;5087937;28;20021;-77
2022/08/19 03:04:22;;;;;;;28.10;18.80;;;;;;;16.28;97.15;101476.44;5088278;28;20028;-77
2022/08/19 03:06:48;;;;;;;34.58;20.73;;;;;;;16.31;97.88;101474.09;5069906;28;20490;-78
2022/08/19 03:09:14;;;;;;;28.40;19.63;;;;;;;16.28;97.07;101474.50;5084238;28;20032;-78
2022/08/19 03:11:40;;;;;;;39.80;23.35;;;;;;;16.41;97.90;101463.44;5069020;28;20430;-78
2022/08/19 03:14:09;;;;;;;43.37;24.33;;;;;;;16.43;97.43;101466.00;5086956;28;20024;-78
2022/08/19 03:16:42;;;;;;;53.47;28.70;;;;;;;16.56;97.95;101463.16;5088619;28;20044;-76
2022/08/19 03:19:07;;;;;;;63.47;32.00;;;;;;;16.73;98.20;101456.88;5088955;28;20036;-77
2022/08/19 03:21:34;;;;;;;63.10;31.93;;;;;;;16.79;97.52;101457.91;5088245;28;20031;-77
2022/08/19 03:24:01;;;;;;;;;;;;;;;16.78;97.71;101454.28;5088953;28;20038;-75
2022/08/19 03:26:27;;;;;;;55.50;30.70;;;;;;;16.75;97.40;101442.84;5088776;28;20077;-76
2022/08/19 03:28:52;;;;;;;60.20;34.97;;;;;;;16.74;97.61;101450.28;5071122;28;20123;-77
2022/08/19 03:31:21;;;;;;;74.13;36.90;;;;;;;16.77;97.82;101443.44;5087374;28;20035;-77
2022/08/19 03:33:47;;;;;;;80.32;40.35;;;;;;;16.86;97.26;101442.94;5070857;28;20024;-77
2022/08/19 03:36:16;;;;;;;78.27;39.90;;;;;;;16.84;97.13;101447.00;5090026;28;20039;-78
2022/08/19 03:38:48;;;;;;;75.15;40.70;;;;;;;16.83;97.00;101442.56;5069771;28;20524;-77
2022/08/19 03:41:16;;;;;;;70.95;38.63;;;;;;;16.74;97.20;101446.66;5079415;28;20032;-77
2022/08/19 03:43:42;;;;;;;75.85;39.72;;;;;;;16.86;96.96;101461.50;5087447;28;20036;-78
2022/08/19 03:46:14;;;;;;;80.65;40.85;;;;;;;16.94;96.81;101458.44;5089366;28;20088;-78
2022/08/19 03:48:41;;;;;;;75.80;40.33;;;;;;;16.90;96.64;101463.56;5088239;28;20165;-76
2022/08/19 03:51:07;;;;;;;72.78;39.38;;;;;;;16.83;96.59;101464.69;5089612;28;20396;-75
2022/08/19 03:53:35;;;;;;;76.40;41.75;;;;;;;16.87;96.85;101466.78;5087200;28;20395;-77
2022/08/19 03:56:01;;;;;;;79.53;42.55;;;;;;;16.90;96.99;101462.72;5070195;28;20031;-77
2022/08/19 03:58:29;;;;;;;73.63;40.63;;;;;;;16.84;97.09;101467.25;5087213;28;20052;-79
2022/08/19 04:00:56;;;;;;;79.32;40.88;;;;;;;16.86;96.87;101478.09;5088929;28;20035;-77
2022/08/19 04:03:21;;;;;;;;;;;;;;;16.94;96.80;101475.03;5087997;28;20043;-76
2022/08/19 04:05:47;;;;;;;76.50;39.92;;;;;;;16.87;96.80;101475.06;5089039;28;19924;-78
2022/08/19 04:08:13;;;;;;;76.30;41.10;;;;;;;16.84;96.77;101471.91;5069728;28;20040;-77
2022/08/19 04:10:40;;;;;;;70.95;38.38;;;;;;;16.88;96.68;101471.25;5071098;28;20392;-79
2022/08/19 04:13:06;;;;;;;74.55;39.90;;;;;;;16.83;97.07;101470.22;5086582;28;20070;-77
2022/08/19 04:15:38;;;;;;;76.95;41.28;;;;;;;16.86;96.76;101469.78;5087549;28;20020;-76
2022/08/19 04:18:07;;;;;;;68.65;38.63;;;;;;;16.79;96.97;101471.72;5083616;28;20028;-77
2022/08/19 04:20:34;;;;;;;76.63;39.83;;;;;;;16.86;97.23;101472.56;5084461;28;20033;-76
2022/08/19 04:22:59;;;;;;;78.20;39.50;;;;;;;16.86;96.68;101475.31;5084805;28;20394;-75
2022/08/19 04:25:25;;;;;;;79.40;40.10;;;;;;;16.79;97.75;101478.13;5066531;28;20036;-77
2022/08/19 04:27:50;;;;;;;79.27;39.53;;;;;;;16.74;97.02;101469.63;5087724;28;20028;-77
2022/08/19 04:30:17;;;;;;;81.03;41.17;;;;;;;16.79;96.99;101467.06;5088823;28;20028;-77
2022/08/19 04:32:43;;;;;;;78.95;38.90;;;;;;;16.71;96.72;101467.31;5087187;28;20043;-76
2022/08/19 04:35:09;;;;;;;75.10;42.70;;;;;;;16.81;97.27;101472.38;5087075;28;20056;-77
2022/08/19 04:37:34;;;;;;;82.47;40.33;;;;;;;16.94;96.90;101469.50;5069629;28;20054;-75
2022/08/19 04:42:44;;;;;;;76.50;40.45;;;;;;;17.09;96.49;101478.34;5083386;28;20031;-77
2022/08/19 04:45:12;;;;;;;87.80;43.20;;;;;;;17.16;96.02;101485.53;5088243;28;20024;-77
2022/08/19 04:47:40;;;;;;;84.30;43.08;;;;;;;17.26;95.66;101476.72;5072570;28;20487;-76
2022/08/19 04:50:07;;;;;;;76.72;42.10;;;;;;;17.24;96.17;101482.47;5092012;28;20028;-77
2022/08/19 04:52:33;;;;;;;78.95;40.72;;;;;;;17.25;95.53;101478.66;5090373;28;20042;-76
2022/08/19 04:54:59;;;;;;;78.30;40.58;;;;;;;17.28;95.59;101482.91;5072652;28;20024;-76
2022/08/19 04:57:24;;;;;;;79.57;42.40;;;;;;;17.38;95.24;101481.34;5090884;28;20044;-75
2022/08/19 04:59:54;;;;;;;72.37;37.93;;;;;;;17.28;95.74;101477.34;5070942;28;20036;-74
2022/08/19 05:02:20;;;;;;;68.50;35.17;;;;;;;17.37;95.69;101487.06;5086158;28;20020;-76
2022/08/19 05:04:45;;;;;;;68.17;36.30;;;;;;;17.39;95.66;101493.28;5069953;28;20066;-76
2022/08/19 05:07:11;;;;;;;64.13;33.60;;;;;;;17.46;95.52;101485.75;5089908;28;20038;-78
2022/08/19 05:09:37;;;;;;;73.93;31.30;;;;;;;17.49;95.73;101488.91;5088208;28;20514;-77
2022/08/19 05:12:02;;;;;;;70.82;31.58;;;;;;;17.50;95.50;101484.22;5090999;28;20437;-78
2022/08/19 05:14:30;;;;;;;72.50;32.13;;;;;;;17.57;95.44;101485.88;5090935;28;20031;-77
2022/08/19 05:16:56;;;;;;;65.75;30.63;;;;;;;17.61;95.36;101489.03;5092590;28;20035;-77
2022/08/19 05:24:50;;;;;;;68.50;32.13;;;;;;;17.56;95.37;101489.69;5092340;28;20035;-76
2022/08/19 05:27:15;;;;;;;65.23;30.30;;;;;;;17.60;95.44;101487.34;5091891;28;20020;-77
2022/08/19 05:29:41;;;;;;;70.73;32.37;;;;;;;17.57;95.47;101488.63;5072269;28;20467;-78
2022/08/19 05:32:10;;;;;;;78.33;33.03;;;;;;;17.66;95.25;101483.66;5092771;28;20030;-77
2022/08/19 05:34:37;;;;;;;68.30;31.08;;;;;;;17.69;95.05;101491.50;5091716;28;20024;-76
2022/08/19 05:37:05;;;;;;;65.60;30.63;;;;;;;17.80;94.64;101490.75;5092833;28;20491;-78
2022/08/19 05:39:34;;;;;;;59.22;29.38;;;;;;;17.78;94.55;101498.44;5070806;28;20028;-77
2022/08/19 05:42:06;;;;;;;69.10;30.63;;;;;;;17.84;94.13;101498.38;5089151;28;20532;-77
2022/08/19 05:44:36;;;;;;;61.50;31.08;;;;;;;17.87;93.85;101494.31;5091158;28;20466;-78
2022/08/19 05:47:05;;;;;;;67.03;31.83;;;;;;;17.85;94.35;101485.34;5073774;28;20024;-77
2022/08/19 05:49:33;;;;;;;60.53;31.90;;;;;;;17.91;94.37;101492.75;5054216;28;20046;-76
2022/08/19 05:52:00;;;;;;;69.55;31.65;;;;;;;17.83;94.66;101504.16;5091993;28;20047;-77
2022/08/19 05:54:26;;;;;;;53.83;28.85;;;;;;;17.87;94.34;101492.38;5089343;28;20085;-78
2022/08/19 05:56:53;;;;;;;65.50;31.60;;;;;;;17.99;93.63;101489.69;5055780;28;20036;-78
2022/08/19 05:59:21;;;;;;;56.28;30.08;;;;;;;17.99;93.77;101492.47;5089272;28;20277;-78
2022/08/19 06:01:52;;;;;;;66.30;30.70;;;;;;;17.95;93.78;101500.41;5091356;28;20111;-78
2022/08/19 06:04:19;;;;;;;66.70;31.38;;;;;;;17.98;94.03;101501.88;5090434;28;20024;-78
2022/08/19 06:06:46;;;;;;;56.83;28.95;;;;;;;18.05;94.15;101503.50;5073012;28;20324;-77
2022/08/19 06:09:12;;;;;;;69.50;30.42;;;;;;;18.19;93.37;101501.41;5089329;28;20024;-77
2022/08/19 06:11:49;;;;;;;56.60;29.87;;;;;;;18.16;93.00;101499.97;5072196;28;20388;-76
2022/08/19 06:14:23;;;;;;;57.47;28.92;;;;;;;18.26;92.88;101485.53;5090207;28;20032;-76
2022/08/19 06:16:51;;;;;;;61.15;30.65;;;;;;;18.37;92.80;101490.34;5089985;28;20507;-77
2022/08/19 06:19:19;;;;;;;57.90;29.67;;;;;;;18.41;92.75;101491.59;5089383;28;20331;-77
2022/08/19 06:21:47;;;;;;;51.20;28.45;;;;;;;18.57;92.05;101483.44;5090598;28;20111;-77
2022/08/19 06:24:15;;;;;;;54.28;29.02;;;;;;;18.70;91.85;101486.06;5090241;28;20029;-77
2022/08/19 06:26:43;;;;;;;54.22;28.25;;;;;;;18.76;91.16;101489.81;5071869;28;20066;-77
2022/08/19 06:29:10;;;;;;;62.70;29.15;;;;;;;18.72;91.67;101485.84;5089736;28;20054;-79
2022/08/19 06:31:36;;;;;;;56.65;28.98;;;;;;;18.92;90.92;101486.38;5072867;28;20064;-78
2022/08/19 06:34:04;;;;;;;56.47;27.87;;;;;;;18.90;90.79;101481.03;5090129;28;20059;-78
2022/08/19 06:36:41;;;;;;;60.47;29.00;;;;;;;18.93;90.72;101483.38;5090457;28;20032;-78
2022/08/19 06:39:12;;;;;;;48.63;26.77;;;;;;;18.98;90.76;101489.06;5088425;28;20051;-77
2022/08/19 06:41:42;;;;;;;54.40;27.20;;;;;;;18.97;90.51;101495.69;5089547;28;20499;-79
2022/08/19 06:44:08;;;;;;;56.00;25.42;;;;;;;19.04;90.74;101484.50;5089863;28;20550;-79
2022/08/19 06:46:36;;;;;;;49.33;25.80;;;;;;;19.09;90.45;101490.16;5090910;28;20159;-80
2022/08/19 06:49:01;;;;;;;49.70;26.10;;;;;;;18.98;90.94;101493.75;5071202;28;20460;-80
2022/08/19 06:51:26;;;;;;;54.70;26.13;;;;;;;18.95;91.32;101491.47;5090430;28;20103;-79
2022/08/19 06:53:54;;;;;;;47.63;24.50;;;;;;;19.04;90.98;101487.28;5072912;28;20016;-77
2022/08/19 06:56:33;;;;;;;47.00;24.38;;;;;;;19.20;90.98;101498.53;5087878;28;20035;-79
2022/08/19 06:59:03;;;;;;;41.30;22.83;;;;;;;19.25;89.90;101489.50;5086064;28;20032;-79
2022/08/19 07:01:28;;;;;;;50.47;23.90;;;;;;;19.26;90.38;101502.34;5090381;28;20032;-78
2022/08/19 07:03:54;;;;;;;44.57;22.37;;;;;;;19.22;90.42;101498.34;5069490;28;20032;-78
2022/08/19 07:06:20;;;;;;;43.63;22.40;;;;;;;19.22;90.38;101506.69;5087301;28;20053;-77
2022/08/19 07:08:47;;;;;;;40.90;20.40;;;;;;;19.21;90.34;101516.06;5071224;28;20020;-77
2022/08/19 07:11:15;;;;;;;36.00;19.83;;;;;;;19.15;90.05;101512.28;5087412;28;20028;-78
2022/08/19 07:13:43;;;;;;;38.70;19.85;;;;;;;19.09;90.62;101517.94;5089192;28;20111;-77
2022/08/19 07:16:12;;;;;;;47.30;21.08;;;;;;;19.03;91.05;101507.78;5070819;28;20031;-78
2022/08/19 07:18:38;;;;;;;37.83;19.73;;;;;;;19.22;90.72;101507.50;5065829;28;20028;-79
2022/08/19 07:21:08;;;;;;;39.77;20.23;;;;;;;19.39;90.21;101508.53;5087115;28;20036;-79
2022/08/19 07:23:34;;;;;;;38.35;19.90;;;;;;;19.44;89.82;101500.34;5069167;28;20514;-78
2022/08/19 07:26:12;;;;;;;43.53;18.97;;;;;;;19.50;89.53;101504.94;5085221;28;20031;-78
2022/08/19 07:28:38;;;;;;;38.03;19.48;;;;;;;19.71;89.07;101512.69;5089325;28;20035;-77
2022/08/19 07:31:06;;;;;;;32.65;17.95;;;;;;;19.72;88.47;101516.28;5083785;28;20422;-76
2022/08/19 07:33:32;;;;;;;38.90;16.40;;;;;;;19.83;88.29;101509.88;5087611;28;20419;-79
2022/08/19 07:35:58;;;;;;;35.70;18.45;;;;;;;19.94;88.80;101515.47;5089514;28;20032;-78
2022/08/19 07:38:23;;;;;;;38.50;18.60;;;;;;;20.09;87.88;101510.28;5069305;28;20570;-77
2022/08/19 07:40:51;;;;;;;31.73;15.03;;;;;;;20.25;86.90;101508.69;5086295;28;20039;-79
2022/08/19 07:43:17;;;;;;;40.47;18.48;;;;;;;20.18;86.90;101508.81;5088743;28;20048;-79
2022/08/19 07:45:42;;;;;;;40.88;18.00;;;;;;;20.38;86.39;101508.44;5085066;28;20066;-79
2022/08/19 07:48:08;;;;;;;34.77;16.77;;;;;;;20.43;86.32;101522.47;5088860;28;20039;-78
2022/08/19 07:50:33;;;;;;;37.10;16.20;;;;;;;20.63;85.25;101525.66;5087945;28;20024;-81
2022/08/19 07:52:58;;;;;;;30.20;16.20;;;;;;;20.76;84.67;101529.00;5086191;28;20494;-81
2022/08/19 07:55:25;;;;;;;30.63;16.37;;;;;;;20.75;84.20;101526.50;5067112;28;20042;-81
2022/08/19 07:57:52;;;;;;;29.05;15.55;;;;;;;20.84;84.53;101530.56;5088502;28;20036;-81
2022/08/19 08:00:18;;;;;;;30.90;15.80;;;;;;;20.95;85.04;101535.28;5088322;28;20420;-81
2022/08/19 08:02:43;;;;;;;25.50;14.43;;;;;;;20.91;84.39;101548.03;5082009;28;20077;-79
2022/08/19 08:10:37;;;;;;;25.70;13.35;;;;;;;20.89;83.51;101541.84;5083247;28;20482;-79
2022/08/19 08:13:05;;;;;;;32.73;13.83;;;;;;;20.90;84.04;101541.59;5088106;28;20039;-79
2022/08/19 08:15:31;;;;;;;29.70;14.13;;;;;;;20.96;83.40;101545.34;5089260;28;20035;-81
2022/08/19 08:17:57;;;;;;;22.70;13.15;;;;;;;20.96;83.46;101557.31;5071147;28;20024;-82
2022/08/19 08:20:23;;;;;;;27.52;13.57;;;;;;;20.96;83.73;101554.53;5074737;28;20024;-80
2022/08/19 08:25:35;;;;;;;29.70;13.07;;;;;;;21.07;82.94;101548.06;5092156;28;20031;-80
2022/08/19 08:28:00;;;;;;;33.88;14.40;;;;;;;21.18;82.33;101544.38;5074014;28;20016;-79
2022/08/19 08:30:28;;;;;;;21.13;12.87;;;;;;;21.37;81.92;101553.38;5092032;28;20024;-80
2022/08/19 08:32:54;;;;;;;25.45;12.93;;;;;;;21.38;81.57;101550.34;5091759;28;20077;-79
2022/08/19 08:35:23;;;;;;;24.38;11.70;;;;;;;21.36;82.19;101552.53;5073685;28;20036;-80
2022/08/19 08:37:51;;;;;;;23.98;13.35;;;;;;;21.50;81.46;101553.91;5073188;28;20032;-80
2022/08/19 08:40:43;;;;;;;19.10;14.02;;;;;;;21.41;81.59;101555.44;5091445;28;20024;-78
2022/08/19 08:43:23;;;;;;;19.80;12.63;;;;;;;21.43;81.83;101557.94;5090051;28;20398;-79
2022/08/19 08:46:08;;;;;;;31.65;14.18;;;;;;;21.63;81.30;101558.31;5090974;28;20028;-80
2022/08/19 08:48:45;;;;;;;22.52;13.77;;;;;;;21.64;80.98;101562.78;5092138;28;20161;-79
2022/08/19 08:51:16;;;;;;;37.20;14.35;;;;;;;21.77;80.43;101559.72;5070695;28;20063;-80
2022/08/19 08:53:43;;;;;;;25.98;11.88;;;;;;;21.82;80.83;101563.41;5067403;28;20024;-80
2022/08/19 08:56:12;;;;;;;29.00;12.32;;;;;;;21.92;80.09;101558.00;5071117;28;20495;-79
2022/08/19 08:58:56;;;;;;;21.25;11.55;;;;;;;21.90;80.21;101571.38;5086969;28;20020;-78
2022/08/19 09:01:22;;;;;;;30.77;12.50;;;;;;;21.93;79.53;101570.84;5090192;28;20039;-79
2022/08/19 09:03:47;;;;;;;34.58;13.00;;;;;;;21.88;79.54;101567.16;5091484;28;20016;-79
2022/08/19 09:06:26;;;;;;;19.67;11.77;;;;;;;21.72;79.59;101568.00;5068249;28;20036;-77
2022/08/19 09:09:03;;;;;;;28.13;12.52;;;;;;;21.81;80.27;101569.25;5088279;28;20047;-76
2022/08/19 09:11:38;;;;;;;25.40;10.73;;;;;;;21.78;80.42;101567.81;5085516;28;20494;-77
2022/08/19 09:14:32;;;;;;;38.67;9.77;;;;;;;21.99;79.21;101574.59;5074811;28;20398;-79
2022/08/19 09:16:59;;;;;;;20.80;9.40;;;;;;;22.10;79.02;101577.25;5088647;28;20036;-76
2022/08/19 09:19:24;;;;;;;;;;;;;;;22.20;76.91;101568.22;5089830;28;20040;-77
2022/08/19 09:21:50;;;;;;;15.90;9.10;;;;;;;22.33;77.13;101574.28;5084618;28;19934;-78
2022/08/19 09:24:15;;;;;;;17.17;8.25;;;;;;;22.31;77.55;101576.47;5072526;28;20498;-78
2022/08/19 09:26:43;;;;;;;15.80;8.30;;;;;;;22.38;77.20;101570.72;5089148;28;20036;-78
2022/08/19 09:29:10;;;;;;;21.75;8.50;;;;;;;22.66;76.66;101571.44;5072352;28;20028;-77
2022/08/19 09:31:35;;;;;;;18.15;8.52;;;;;;;22.93;74.91;101565.91;5089840;28;20459;-78
2022/08/19 09:34:03;;;;;;;19.87;9.57;;;;;;;23.40;73.73;101572.63;5089477;28;20031;-76
2022/08/19 09:36:30;;;;;;;14.75;8.05;;;;;;;23.77;72.08;101567.97;5087775;28;20039;-76
2022/08/19 09:38:56;;;;;;;16.65;7.55;;;;;;;23.99;71.49;101571.53;5090117;28;20060;-76
2022/08/19 09:41:24;;;;;;;13.27;7.78;;;;;;;24.18;70.93;101575.63;5087957;28;20048;-76
2022/08/19 09:43:52;;;;;;;14.95;8.32;;;;;;;24.28;70.02;101570.91;5087276;28;20111;-76
2022/08/19 09:46:20;;;;;;;19.17;8.30;;;;;;;24.46;68.68;101570.50;5091414;28;20486;-77
2022/08/19 09:48:48;;;;;;;22.63;8.80;;;;;;;24.69;67.94;101567.28;5091318;28;20016;-76
2022/08/19 09:51:16;;;;;;;15.98;7.60;;;;;;;24.59;67.83;101572.00;5088478;28;20032;-76
2022/08/19 09:53:44;;;;;;;15.52;8.00;;;;;;;25.00;66.81;101562.66;5072215;28;20395;-77
2022/08/19 09:56:11;;;;;;;14.85;7.25;;;;;;;24.80;67.18;101566.22;5090147;28;20547;-77
2022/08/19 09:58:37;;;;;;;15.60;7.50;;;;;;;24.45;68.06;101576.38;5090099;28;20036;-75
2022/08/19 10:01:04;;;;;;;12.30;7.68;;;;;;;24.33;68.68;101568.16;5090717;28;20024;-76
2022/08/19 10:03:31;;;;;;;16.55;7.40;;;;;;;23.88;70.12;101579.03;5087314;28;20161;-77
2022/08/19 10:05:58;;;;;;;22.17;7.50;;;;;;;23.72;70.60;101581.91;5085786;28;20078;-76
2022/08/19 10:08:36;;;;;;;36.42;7.78;;;;;;;23.73;69.38;101583.59;5089863;28;20036;-76
2022/08/19 10:11:03;;;;;;;18.33;7.05;;;;;;;24.02;69.67;101580.25;5078927;28;20100;-76
2022/08/19 10:13:31;;;;;;;17.98;7.97;;;;;;;24.02;69.26;101571.00;5090290;28;20118;-78
2022/08/19 10:16:07;;;;;;;13.23;6.18;;;;;;;23.96;69.00;101574.88;5073006;28;20047;-76
2022/08/19 10:18:37;;;;;;;9.82;6.35;;;;;;;23.90;68.81;101573.16;5070549;28;20024;-76
2022/08/19 10:21:08;;;;;;;14.27;5.85;;;;;;;24.07;69.23;101571.88;5090355;28;20048;-77
2022/08/19 10:23:34;;;;;;;12.77;5.70;;;;;;;24.48;68.77;101571.06;5092506;28;20069;-78
2022/08/19 10:26:00;;;;;;;12.95;6.22;;;;;;;24.88;65.99;101564.84;5090855;28;20074;-76
2022/08/19 10:28:25;;;;;;;20.65;6.78;;;;;;;25.05;65.34;101568.28;5091168;28;20467;-77
2022/08/19 10:30:51;;;;;;;17.93;7.43;;;;;;;24.78;66.42;101571.25;5069817;28;20024;-76
2022/08/19 10:33:16;;;;;;;15.38;7.00;;;;;;;24.91;67.33;101565.13;5082382;28;20382;-75
2022/08/19 10:35:41;;;;;;;16.90;7.43;;;;;;;24.82;67.63;101560.34;5090788;28;20120;-76
2022/08/19 10:38:07;;;;;;;22.83;6.17;;;;;;;24.88;68.28;101564.84;5074148;28;20415;-76
2022/08/19 10:40:32;;;;;;;18.17;7.77;;;;;;;24.53;67.87;101567.44;5091182;28;20024;-78
2022/08/19 10:42:57;;;;;;;15.67;7.87;;;;;;;24.26;69.67;101575.97;5087846;28;20028;-79
2022/08/19 10:45:25;;;;;;;14.63;9.37;;;;;;;23.84;74.74;101579.81;5088241;28;20024;-80
2022/08/19 10:47:52;;;;;;;21.85;12.23;;;;;;;23.02;78.62;101578.31;5086837;28;20030;-79
2022/08/19 10:53:10;;;;;;;18.88;10.70;;;;;;;22.81;80.61;101573.59;5082581;28;20528;-80
2022/08/19 10:58:24;;;;;;;16.15;10.32;;;;;;;22.86;81.79;101568.06;5089524;28;20039;-80
2022/08/19 11:00:54;;;;;;;15.13;9.45;;;;;;;22.96;82.41;101571.00;5065879;28;20086;-79
2022/08/19 11:03:20;;;;;;;13.82;9.65;;;;;;;23.09;80.79;101564.97;5070726;28;20024;-80
2022/08/19 11:05:46;;;;;;;10.90;7.80;;;;;;;23.25;81.81;101576.13;5088519;28;20039;-81
2022/08/19 11:08:11;;;;;;;10.67;8.30;;;;;;;23.32;81.98;101570.31;5068902;28;20020;-81
2022/08/19 11:10:42;;;;;;;12.00;8.07;;;;;;;23.33;81.73;101572.00;5069875;28;20031;-81
2022/08/19 11:13:07;;;;;;;9.35;7.38;;;;;;;23.61;78.95;101569.78;5087523;28;20043;-80
2022/08/19 11:15:33;;;;;;;9.87;6.70;;;;;;;24.24;78.82;101569.78;5068133;28;20028;-78
2022/08/19 11:17:58;;;;;;;6.82;6.13;;;;;;;24.46;76.67;101575.25;5089118;28;20028;-78
2022/08/19 11:20:24;;;;;;;9.00;6.93;;;;;;;24.60;75.73;101568.09;5082883;28;20357;-78
2022/08/19 11:22:51;;;;;;;9.63;6.97;;;;;;;24.53;76.07;101581.44;5089608;28;20054;-78
2022/08/19 11:25:17;;;;;;;11.45;7.38;;;;;;;24.23;76.10;101575.66;5071502;28;20453;-77
2022/08/19 11:27:43;;;;;;;12.17;7.87;;;;;;;24.14;75.16;101575.31;5074339;28;20039;-77
2022/08/19 11:30:09;;;;;;;;;;;;;;;24.06;76.90;101581.41;5090308;28;20048;-78
2022/08/19 11:32:34;;;;;;;9.88;7.63;;;;;;;24.10;76.94;101573.31;5084921;28;19921;-79
2022/08/19 11:34:59;;;;;;;11.50;8.90;;;;;;;24.06;75.46;101577.78;5068669;28;20024;-77
2022/08/19 11:37:25;;;;;;;12.77;7.80;;;;;;;24.10;74.51;101574.16;5074647;28;20107;-78
2022/08/19 11:39:51;;;;;;;14.27;8.48;;;;;;;24.18;75.52;101575.63;5087655;28;20040;-78
2022/08/19 11:45:13;;;;;;;13.73;8.75;;;;;;;24.11;75.20;101573.03;5053552;28;20040;-79